Date,TemperatureHighF,TemperatureAvgF,TemperatureLowF,DewpointHighF,DewpointAvgF,DewpointLowF,HumidityHigh,HumidityAvg,HumidityLow,PressureMaxIn,PressureMinIn,WindSpeedMaxMPH,WindSpeedAvgMPH,GustSpeedMaxMPH,PrecipitationSumIn
2013-3-1,33,31,29,28,25,21,89,79,69,0.00,40.00,7,4,17,0.00
2013-3-2,31,29,26,27,24,19,89,82,68,0.00,40.00,9,5,24,0.04
2013-3-3,33,26,22,19,15,11,78,63,48,0.00,40.00,10,6,22,0.01
2013-3-4,54,39,25,24,16,5,61,42,23,0.00,40.00,7,4,17,0.01
2013-3-5,51,45,31,49,38,23,97,77,40,0.00,40.00,11,5,29,0.43
2013-3-6,31,28,25,25,21,15,87,77,62,0.00,40.00,13,9,35,0.01
2013-3-7,50,35,27,29,25,22,91,69,40,0.00,40.00,7,4,16,0.01
2013-3-8,58,38,22,30,19,2,95,59,13,0.00,40.00,8,2,17,0.00
2013-3-9,59,44,27,27,24,21,87,51,24,0.00,40.00,8,3,14,0.00
2013-3-10,62,54,49,36,29,25,51,38,30,0.00,40.00,11,7,23,0.00
2013-3-11,54,52,49,51,47,36,98,86,51,0.00,40.00,13,7,31,1.25
2013-3-12,51,42,33,49,33,24,97,72,40,0.00,40.00,10,5,18,0.84
2013-3-13,43,38,29,26,21,14,64,50,35,0.00,40.00,11,6,26,0.01
2013-3-14,48,34,22,16,12,7,68,44,18,0.00,40.00,12,6,26,0.00
2013-3-15,67,49,29,40,32,13,93,57,33,0.00,40.00,10,4,20,0.00
2013-3-16,69,59,51,43,40,36,63,49,34,0.00,40.00,9,5,21,0.00
2013-3-17,66,56,44,50,43,38,88,63,43,0.00,40.00,7,4,18,0.00
2013-3-18,55,50,46,52,47,44,99,92,70,0.00,40.00,8,4,18,0.35
2013-3-19,55,47,39,47,28,10,100,55,26,0.00,40.00,10,5,23,0.24
2013-3-20,52,42,32,28,11,0,79,31,15,0.00,40.00,9,4,21,0.00
2013-3-21,37,30,21,28,10,2,79,46,26,0.00,40.00,11,5,21,0.00
2013-3-22,46,36,28,29,17,8,57,46,31,0.00,40.00,6,3,9,0.00
2013-3-23,53,45,38,49,41,28,99,86,57,0.00,40.00,7,2,14,0.36
2013-3-24,50,46,38,48,44,31,98,94,75,0.00,40.00,9,4,21,1.48
2013-3-25,38,30,27,31,22,18,81,70,62,0.00,40.00,11,7,25,0.16
2013-3-26,33,29,26,24,21,18,82,73,60,0.00,40.00,9,6,21,0.00
2013-3-27,46,34,27,23,20,13,79,60,29,0.00,40.00,11,5,21,0.00
2013-3-28,53,47,33,26,23,16,74,41,24,0.00,40.00,11,6,21,0.00
2013-3-29,57,40,26,32,25,22,87,60,29,0.00,40.00,6,3,13,0.00
2013-3-30,65,51,40,50,38,29,98,65,28,0.00,40.00,7,3,25,0.22
2013-3-31,58,54,51,54,49,-100,99,92,69,0.00,40.00,8,4,22,0.89